Time;durP1;ratioP1;P1;durP2;ratioP2;P2;SDS_P1;SDS_P2;PMS_P1;PMS_P2;Temp;Humidity;BMP_temperature;BMP_pressure;BME280_temperature;BME280_humidity;BME280_pressure;Samples;Min_cycle;Max_cycle;Signal;HPM_P1;HPM_P2
2023/08/12 00:02:17;;;;;;;10.40;4.00;;;;;;;17.22;46.67;100705.95;102815;1259;138026;-64
2023/08/12 00:04:46;;;;;;;9.50;3.90;;;;;;;17.10;46.62;100704.82;102917;1259;112118;-64
2023/08/12 00:07:13;;;;;;;9.80;3.60;;;;;;;17.02;46.59;100704.90;102754;1259;138098;-64
2023/08/12 00:09:40;;;;;;;8.00;4.20;;;;;;;16.98;46.81;100703.02;102876;1259;97927;-64
2023/08/12 00:12:09;;;;;;;7.90;3.90;;;;;;;16.97;46.83;100705.89;102890;1263;108015;-65
2023/08/12 00:14:37;;;;;;;8.80;3.80;;;;;;;16.90;46.96;100706.55;102039;1264;1002928;-64
2023/08/12 00:17:04;;;;;;;8.70;4.30;;;;;;;16.85;47.28;100709.42;102936;1259;111444;-64
2023/08/12 00:19:31;;;;;;;9.30;4.70;;;;;;;16.83;47.43;100712.55;102793;1263;137987;-63
2023/08/12 00:21:58;;;;;;;9.60;4.20;;;;;;;16.80;47.89;100712.88;102814;1259;97801;-64
2023/08/12 00:24:25;;;;;;;10.60;4.70;;;;;;;16.77;47.81;100715.16;102944;1259;108357;-64
2023/08/12 00:26:52;;;;;;;9.70;4.60;;;;;;;16.70;47.92;100718.13;102759;1259;138048;-64
2023/08/12 00:29:19;;;;;;;18.50;6.60;;;;;;;16.62;48.13;100711.64;102875;1259;112113;-63
2023/08/12 00:31:46;;;;;;;8.70;4.70;;;;;;;16.60;48.13;100715.08;102796;1263;138208;-64
2023/08/12 00:34:14;;;;;;;14.70;4.90;;;;;;;16.54;48.13;100712.23;102906;1259;97689;-63
2023/08/12 00:36:41;;;;;;;12.80;5.20;;;;;;;16.48;48.18;100712.67;102930;1259;108647;-63
2023/08/12 00:39:08;;;;;;;8.00;4.40;;;;;;;16.43;48.28;100717.50;102836;1263;138036;-63
2023/08/12 00:41:36;;;;;;;8.70;4.30;;;;;;;16.40;48.41;100713.59;102925;1259;110896;-64
2023/08/12 00:44:04;;;;;;;12.40;5.10;;;;;;;16.38;48.41;100715.98;102809;1259;138084;-64
2023/08/12 00:46:31;;;;;;;12.50;4.50;;;;;;;16.33;48.55;100714.83;103048;1259;99416;-64
2023/08/12 00:48:58;;;;;;;11.50;5.00;;;;;;;16.27;48.69;100718.79;102895;1259;108252;-64
2023/08/12 00:51:26;;;;;;;10.60;5.10;;;;;;;16.22;48.89;100715.17;102750;1263;137855;-64
2023/08/12 00:53:53;;;;;;;8.60;4.80;;;;;;;16.18;49.14;100713.27;102947;1259;111106;-64
2023/08/12 00:56:22;;;;;;;8.50;5.30;;;;;;;16.13;49.30;100710.17;102712;1259;137929;-64
2023/08/12 00:58:50;;;;;;;9.20;5.00;;;;;;;16.10;49.45;100709.27;103077;1259;97828;-63
2023/08/12 01:01:19;;;;;;;15.60;5.10;;;;;;;16.09;49.57;100709.15;102807;1262;138352;-64
2023/08/12 01:03:46;;;;;;;10.40;5.00;;;;;;;16.05;49.64;100711.11;102928;1264;97798;-64
2023/08/12 01:06:14;;;;;;;10.70;5.20;;;;;;;16.00;49.70;100708.17;102944;1264;110817;-64
2023/08/12 01:08:41;;;;;;;8.20;4.70;;;;;;;15.96;49.82;100707.46;102809;1259;138413;-64
2023/08/12 01:11:15;;;;;;;8.70;5.30;;;;;;;15.93;49.91;100709.00;102756;1264;97982;-64
2023/08/12 01:13:50;;;;;;;11.60;5.20;;;;;;;15.88;50.11;100706.27;103956;1259;138628;-65
2023/08/12 01:16:21;;;;;;;18.10;5.30;;;;;;;15.84;50.03;100707.34;102921;1263;97909;-64
2023/08/12 01:18:50;;;;;;;11.00;5.40;;;;;;;15.82;50.15;100705.87;102949;1263;111071;-65
2023/08/12 01:21:22;;;;;;;15.30;5.50;;;;;;;15.80;50.24;100708.76;102846;1259;138126;-64
2023/08/12 01:23:49;;;;;;;9.40;4.90;;;;;;;15.80;50.29;100701.57;104275;1259;95733;-65
2023/08/12 01:26:16;;;;;;;14.00;5.60;;;;;;;15.81;50.38;100704.34;104128;1259;138066;-77
2023/08/12 01:28:43;;;;;;;15.30;5.80;;;;;;;15.80;50.54;100702.45;104265;1259;95998;-71
2023/08/12 01:31:13;;;;;;;11.80;5.60;;;;;;;15.80;50.59;100702.10;103004;1259;138027;-71
2023/08/12 01:33:44;;;;;;;9.80;5.20;;;;;;;15.79;50.61;100704.58;102830;1259;107514;-70
2023/08/12 01:36:14;;;;;;;10.00;5.20;;;;;;;15.78;50.43;100700.41;104264;1259;96407;-70
2023/08/12 01:38:42;;;;;;;10.80;5.80;;;;;;;15.77;50.46;100703.46;104155;1259;137828;-72
2023/08/12 01:41:12;;;;;;;14.30;5.30;;;;;;;15.76;50.65;100704.40;103550;1262;97792;-72
2023/08/12 01:43:40;;;;;;;10.10;5.30;;;;;;;15.74;50.66;100707.99;102680;1264;138163;-72
2023/08/12 01:46:07;;;;;;;12.20;6.00;;;;;;;15.70;50.91;100706.73;102863;1259;107773;-72
2023/08/12 01:48:35;;;;;;;9.30;5.40;;;;;;;15.68;51.03;100707.89;104118;1259;95795;-73
2023/08/12 01:51:03;;;;;;;15.20;5.90;;;;;;;15.67;51.11;100710.77;102663;1259;137934;-72
2023/08/12 01:53:29;;;;;;;13.20;6.00;;;;;;;15.64;51.19;100707.55;102844;1262;97911;-72
2023/08/12 01:55:57;;;;;;;12.70;5.50;;;;;;;15.61;51.36;100707.14;102248;1264;1004623;-72
2023/08/12 01:58:26;;;;;;;12.60;5.70;;;;;;;15.60;51.63;100706.51;102698;1265;107890;-71
2023/08/12 02:00:53;;;;;;;11.80;5.90;;;;;;;15.59;51.61;100706.90;102916;1259;97996;-71
2023/08/12 02:03:20;;;;;;;16.00;6.40;;;;;;;15.57;51.71;100704.32;104118;1259;137642;-72
2023/08/12 02:05:48;;;;;;;10.80;6.40;;;;;;;15.56;51.82;100703.50;103853;1260;97626;-72
2023/08/12 02:08:15;;;;;;;10.30;6.10;;;;;;;15.56;51.94;100706.16;102654;1259;138201;-72
2023/08/12 02:10:42;;;;;;;8.80;5.70;;;;;;;15.56;52.04;100706.50;102829;1259;106604;-72
2023/08/12 02:13:09;;;;;;;14.30;6.30;;;;;;;15.55;52.10;100707.23;102723;1263;138488;-72
2023/08/12 02:15:36;;;;;;;12.70;5.80;;;;;;;15.54;52.09;100704.83;102813;1263;107613;-73
2023/08/12 02:18:04;;;;;;;13.10;6.80;;;;;;;15.51;52.18;100700.92;102838;1263;97932;-72
2023/08/12 02:20:31;;;;;;;10.40;6.40;;;;;;;15.50;52.23;100702.55;102800;1259;137837;-73
2023/08/12 02:23:00;;;;;;;10.50;6.30;;;;;;;15.49;52.36;100699.13;102755;1259;107131;-72
2023/08/12 02:25:28;;;;;;;11.30;6.20;;;;;;;15.46;52.43;100702.22;103413;1263;138441;-72
2023/08/12 02:27:56;;;;;;;10.60;6.20;;;;;;;15.44;52.59;100700.56;102777;1259;107735;-71
2023/08/12 02:30:23;;;;;;;10.30;6.40;;;;;;;15.41;52.66;100704.00;102064;1263;1003198;-72
2023/08/12 02:32:50;;;;;;;10.70;6.60;;;;;;;15.41;52.63;100707.70;102779;1263;138460;-72
2023/08/12 02:35:18;;;;;;;11.30;6.40;;;;;;;15.39;52.73;100706.02;102891;1259;108195;-72
2023/08/12 02:37:45;;;;;;;15.40;6.90;;;;;;;15.37;52.78;100701.72;102672;1263;138165;-72
2023/08/12 02:40:13;;;;;;;10.70;6.30;;;;;;;15.35;52.93;100701.29;102845;1264;106040;-72
2023/08/12 02:42:40;;;;;;;12.10;6.30;;;;;;;15.32;52.93;100700.73;102817;1263;97806;-73
2023/08/12 02:45:09;;;;;;;9.40;6.10;;;;;;;15.29;53.11;100707.36;102559;1259;137791;-72
2023/08/12 02:47:36;;;;;;;11.10;6.20;;;;;;;15.26;53.15;100706.77;102825;1259;106715;-72
2023/08/12 02:50:03;;;;;;;12.50;6.20;;;;;;;15.24;53.23;100710.20;102609;1259;138036;-72
2023/08/12 02:52:30;;;;;;;11.70;6.20;;;;;;;15.22;53.24;100712.23;102020;1259;1002673;-72
2023/08/12 02:54:57;;;;;;;14.40;6.10;;;;;;;15.19;53.26;100711.11;102671;1264;97794;-72
2023/08/12 02:57:24;;;;;;;11.80;6.30;;;;;;;15.16;53.20;100716.17;102708;1262;137644;-72
2023/08/12 02:59:51;;;;;;;10.90;5.80;;;;;;;15.12;53.34;100719.14;101879;1264;1003122;-72
2023/08/12 03:02:19;;;;;;;10.90;5.90;;;;;;;15.11;53.35;100721.64;102698;1259;138106;-72
2023/08/12 03:04:46;;;;;;;10.10;6.50;;;;;;;15.08;53.43;100719.84;102692;1259;107881;-72
2023/08/12 03:07:13;;;;;;;10.80;5.20;;;;;;;15.05;53.48;100721.52;102707;1259;138378;-72
2023/08/12 03:09:40;;;;;;;11.50;6.40;;;;;;;15.02;53.58;100725.50;102777;1264;112375;-71
2023/08/12 03:12:08;;;;;;;11.20;6.00;;;;;;;15.01;53.53;100728.17;102836;1263;107695;-72
2023/08/12 03:14:35;;;;;;;11.10;5.40;;;;;;;15.01;53.64;100725.76;101881;1260;1003517;-73
2023/08/12 03:17:03;;;;;;;15.70;5.90;;;;;;;14.99;53.48;100727.91;102746;1264;107038;-73
2023/08/12 03:19:31;;;;;;;15.00;5.70;;;;;;;15.00;53.53;100730.86;101895;1260;1003751;-72
2023/08/12 03:21:58;;;;;;;12.50;5.80;;;;;;;14.99;53.68;100729.00;102713;1264;111285;-72
2023/08/12 03:24:26;;;;;;;8.50;5.60;;;;;;;14.99;53.52;100731.79;102821;1259;107260;-73
2023/08/12 03:26:53;;;;;;;10.70;5.60;;;;;;;14.99;53.55;100735.30;102598;1265;138041;-72
2023/08/12 03:29:20;;;;;;;10.30;5.30;;;;;;;14.98;53.55;100743.39;102709;1267;108859;-73
2023/08/12 03:31:48;;;;;;;13.70;5.70;;;;;;;14.95;53.39;100743.15;102719;1263;138174;-72
2023/08/12 03:34:15;;;;;;;10.70;5.30;;;;;;;14.94;53.34;100738.66;102796;1263;112833;-72
2023/08/12 03:36:42;;;;;;;12.40;5.50;;;;;;;14.93;53.31;100741.31;102817;1264;106853;-73
2023/08/12 03:39:10;;;;;;;9.30;5.10;;;;;;;14.93;53.19;100742.55;102719;1259;138080;-72
2023/08/12 03:41:38;;;;;;;12.70;5.80;;;;;;;14.93;53.17;100744.31;102808;1260;108324;-72
2023/08/12 03:44:06;;;;;;;12.50;5.10;;;;;;;14.92;52.99;100747.67;101858;1259;1003003;-71
2023/08/12 03:46:34;;;;;;;9.90;5.40;;;;;;;14.91;53.06;100743.16;102906;1262;112600;-72
2023/08/12 03:49:01;;;;;;;9.60;5.70;;;;;;;14.96;53.20;100746.27;103675;1260;107635;-72
2023/08/12 03:51:29;;;;;;;12.60;5.70;;;;;;;15.00;53.13;100742.96;102660;1265;98095;-71
2023/08/12 03:53:57;;;;;;;12.40;5.90;;;;;;;15.04;53.21;100744.51;102066;1263;1003641;-71
2023/08/12 03:56:24;;;;;;;11.10;5.90;;;;;;;15.08;53.33;100743.46;102762;1263;138097;-71
2023/08/12 03:58:51;;;;;;;9.30;5.70;;;;;;;15.10;53.31;100741.45;102863;1259;112456;-75
2023/08/12 04:01:18;;;;;;;15.30;6.40;;;;;;;15.14;53.42;100741.34;102655;1264;138010;-72
2023/08/12 04:03:45;;;;;;;10.60;5.60;;;;;;;15.15;53.41;100741.79;102811;1260;97750;-72
2023/08/12 04:06:23;;;;;;;16.00;6.50;;;;;;;15.18;53.53;100742.70;102853;1266;108313;-72
2023/08/12 04:08:50;;;;;;;9.50;5.60;;;;;;;15.22;53.41;100745.52;102693;1261;138059;-73
2023/08/12 04:11:17;;;;;;;12.90;6.60;;;;;;;15.24;53.36;100743.81;102721;1260;110485;-73
2023/08/12 04:13:45;;;;;;;11.40;6.30;;;;;;;15.29;53.46;100743.13;101986;1261;1002917;-72
2023/08/12 04:16:12;;;;;;;15.10;6.70;;;;;;;15.33;53.64;100740.45;102676;1274;97810;-72
2023/08/12 04:18:39;;;;;;;13.90;6.40;;;;;;;15.38;53.51;100741.98;102811;1264;108594;-73
2023/08/12 04:21:06;;;;;;;13.30;6.10;;;;;;;15.43;53.54;100738.80;102733;1263;138538;-73
2023/08/12 04:23:34;;;;;;;11.00;6.40;;;;;;;15.49;53.52;100741.54;102722;1261;111013;-72
2023/08/12 04:26:01;;;;;;;12.10;6.20;;;;;;;15.56;53.45;100738.55;102681;1263;138044;-72
2023/08/12 04:28:31;;;;;;;14.50;6.40;;;;;;;15.64;53.33;100735.77;102791;1265;98343;-72
2023/08/12 04:30:58;;;;;;;10.60;6.10;;;;;;;15.72;53.08;100737.54;102728;1264;107985;-73
2023/08/12 04:33:26;;;;;;;10.20;5.50;;;;;;;15.80;53.07;100740.32;102591;1274;137913;-74
2023/08/12 04:35:54;;;;;;;9.90;5.90;;;;;;;15.90;53.01;100743.17;104320;1257;110604;-75
2023/08/12 04:38:22;;;;;;;18.00;6.50;;;;;;;16.02;52.85;100744.72;104095;1264;138236;-73
2023/08/12 04:40:50;;;;;;;11.00;5.90;;;;;;;16.16;52.88;100742.66;102856;1272;97800;-72
2023/08/12 04:43:17;;;;;;;15.90;6.70;;;;;;;16.30;53.18;100745.34;102643;1260;137976;-72
2023/08/12 04:45:47;;;;;;;11.10;6.10;;;;;;;16.42;53.06;100743.67;102647;1264;97887;-72
2023/08/12 04:48:15;;;;;;;12.10;6.60;;;;;;;16.53;53.08;100743.16;102837;1263;113233;-72
2023/08/12 04:50:42;;;;;;;15.90;6.80;;;;;;;16.66;52.76;100745.17;102660;1264;138347;-72
2023/08/12 04:53:09;;;;;;;14.50;7.00;;;;;;;16.81;52.66;100744.08;102784;1263;99462;-72
2023/08/12 04:55:39;;;;;;;15.40;7.10;;;;;;;16.98;52.43;100736.04;102656;1264;138278;-71
2023/08/12 04:58:06;;;;;;;14.70;8.10;;;;;;;17.19;51.96;100732.83;102752;1264;97877;-72
2023/08/12 05:00:34;;;;;;;15.40;7.10;;;;;;;17.62;51.93;100730.93;102828;1263;111554;-72
2023/08/12 05:03:01;;;;;;;14.70;6.30;;;;;;;18.74;51.89;100726.06;103850;1260;137923;-73
2023/08/12 05:05:29;;;;;;;12.30;5.80;;;;;;;20.32;50.36;100722.64;104297;1259;96281;-73
2023/08/12 05:07:56;;;;;;;17.30;6.40;;;;;;;22.43;47.76;100715.02;103695;1261;137954;-72
2023/08/12 05:10:23;;;;;;;12.80;5.20;;;;;;;24.52;44.97;100710.84;102725;1260;97738;-72
2023/08/12 05:12:53;;;;;;;13.80;5.40;;;;;;;26.47;41.71;100705.42;102792;1261;111662;-73
2023/08/12 05:15:21;;;;;;;7.50;4.80;;;;;;;28.18;38.99;100703.42;102662;1261;137805;-74
2023/08/12 05:17:48;;;;;;;11.10;4.80;;;;;;;29.67;36.74;100699.31;102698;1265;97899;-74
2023/08/12 05:20:17;;;;;;;9.40;4.50;;;;;;;31.14;34.82;100698.95;102680;1265;137793;-74
2023/08/12 05:22:45;;;;;;;8.70;4.20;;;;;;;32.49;32.92;100693.66;102827;1273;97800;-74
2023/08/12 05:25:12;;;;;;;9.10;4.10;;;;;;;33.67;31.39;100688.45;102725;1260;137868;-74
2023/08/12 05:27:39;;;;;;;8.30;4.70;;;;;;;34.89;29.63;100683.94;102835;1264;98721;-74
2023/08/12 05:30:07;;;;;;;7.40;3.90;;;;;;;35.93;28.27;100684.74;102799;1261;97804;-75
2023/08/12 05:32:34;;;;;;;11.00;3.90;;;;;;;36.77;27.22;100685.38;103852;1260;137642;-75
2023/08/12 05:35:01;;;;;;;9.20;3.90;;;;;;;37.57;26.11;100679.42;102804;1264;97803;-75
2023/08/12 05:37:28;;;;;;;5.40;3.90;;;;;;;38.43;25.26;100673.86;102764;1263;138398;-75
2023/08/12 05:39:55;;;;;;;8.00;3.70;;;;;;;39.25;24.30;100675.53;102816;1260;100556;-74
2023/08/12 05:42:22;;;;;;;7.90;4.10;;;;;;;39.88;23.10;100676.60;102868;1263;97797;-75
2023/08/12 05:44:49;;;;;;;7.70;3.90;;;;;;;40.29;22.21;100681.36;102797;1264;137565;-75
2023/08/12 05:47:16;;;;;;;5.70;3.40;;;;;;;40.86;21.84;100683.77;102877;1261;97879;-75
2023/08/12 05:49:44;;;;;;;7.40;3.60;;;;;;;41.40;21.21;100680.48;102714;1266;137957;-75
2023/08/12 05:52:11;;;;;;;11.10;4.20;;;;;;;41.89;20.72;100679.67;102748;1263;100181;-75
2023/08/12 05:54:38;;;;;;;11.80;3.70;;;;;;;42.47;20.15;100675.48;102761;1271;97821;-75
2023/08/12 05:57:06;;;;;;;7.10;3.40;;;;;;;42.83;19.63;100674.54;102773;1261;137944;-76
2023/08/12 05:59:33;;;;;;;7.00;3.50;;;;;;;43.21;19.17;100677.02;102894;1261;97856;-76
2023/08/12 06:02:00;;;;;;;9.20;3.40;;;;;;;43.55;18.59;100678.02;102743;1261;137579;-76
2023/08/12 06:04:27;;;;;;;11.60;3.70;;;;;;;43.75;18.11;100677.44;102837;1264;100171;-76
2023/08/12 06:06:54;;;;;;;8.80;4.00;;;;;;;43.69;17.85;100676.88;102873;1259;97804;-76
2023/08/12 06:09:21;;;;;;;7.50;3.70;;;;;;;43.63;17.73;100675.27;102719;1261;137573;-77
2023/08/12 06:11:48;;;;;;;8.00;4.00;;;;;;;43.71;17.46;100674.50;102805;1264;97795;-77
2023/08/12 06:14:15;;;;;;;7.00;3.40;;;;;;;43.76;17.03;100676.64;103398;1258;137619;-74
2023/08/12 06:16:42;;;;;;;10.60;3.70;;;;;;;43.83;17.06;100673.64;104227;1260;98948;-75
2023/08/12 06:19:09;;;;;;;8.20;3.50;;;;;;;44.08;17.29;100671.48;103299;1263;138228;-76
2023/08/12 06:21:37;;;;;;;10.20;3.90;;;;;;;44.37;17.01;100671.20;102815;1261;99233;-76
2023/08/12 06:24:04;;;;;;;11.30;3.40;;;;;;;44.66;16.58;100678.77;102845;1263;97825;-75
2023/08/12 06:26:32;;;;;;;10.10;3.20;;;;;;;44.77;16.32;100679.08;102686;1263;137966;-75
2023/08/12 06:28:59;;;;;;;11.50;3.80;;;;;;;44.89;16.05;100677.79;102801;1260;99134;-75
2023/08/12 06:31:30;;;;;;;9.90;3.20;;;;;;;45.05;16.04;100681.62;102755;1261;138047;-75
2023/08/12 06:33:57;;;;;;;8.80;3.10;;;;;;;45.13;16.12;100683.05;102805;1260;99286;-76
2023/08/12 06:36:25;;;;;;;6.50;3.00;;;;;;;45.35;15.78;100684.16;102887;1261;97687;-76
2023/08/12 06:38:52;;;;;;;10.20;2.90;;;;;;;45.50;15.25;100686.70;102756;1263;138073;-76
2023/08/12 06:41:19;;;;;;;7.20;2.80;;;;;;;45.43;15.26;100690.94;102747;1264;100580;-75
2023/08/12 06:43:46;;;;;;;9.50;3.30;;;;;;;45.34;15.28;100687.20;102680;1261;137953;-75
2023/08/12 06:46:14;;;;;;;7.50;3.20;;;;;;;45.30;15.10;100688.89;102810;1261;99788;-75
2023/08/12 06:48:41;;;;;;;7.30;3.40;;;;;;;45.29;15.41;100686.73;102869;1261;99156;-75
2023/08/12 06:51:10;;;;;;;12.10;3.80;;;;;;;45.32;15.07;100684.77;102745;1260;138096;-76
2023/08/12 06:53:37;;;;;;;14.30;4.40;;;;;;;45.00;15.30;100678.84;102771;1259;100013;-76
2023/08/12 06:56:05;;;;;;;11.30;4.80;;;;;;;44.76;15.24;100682.48;102740;1261;137922;-76
2023/08/12 06:58:33;;;;;;;8.10;2.90;;;;;;;44.65;15.49;100680.09;102854;1260;99055;-76
2023/08/12 07:01:01;;;;;;;6.30;2.80;;;;;;;44.77;15.35;100678.46;103763;1260;96660;-76
2023/08/12 07:03:29;;;;;;;8.00;3.20;;;;;;;44.87;15.16;100680.08;102826;1257;104185;-76
2023/08/12 07:05:57;;;;;;;8.20;2.90;;;;;;;45.05;15.38;100679.94;102847;1263;99182;-75
2023/08/12 07:08:32;;;;;;;6.80;2.80;;;;;;;45.40;15.03;100681.21;102832;1260;137701;-73
2023/08/12 07:10:59;;;;;;;6.80;2.40;;;;;;;45.71;14.74;100684.09;102775;1265;99094;-74
2023/08/12 07:13:26;;;;;;;10.10;2.90;;;;;;;45.88;14.64;100679.73;102815;1260;138008;-73
2023/08/12 07:15:53;;;;;;;5.50;2.80;;;;;;;45.94;14.38;100679.23;103846;1260;102699;-73
2023/08/12 07:18:23;;;;;;;6.20;3.10;;;;;;;45.75;14.23;100677.49;102687;1261;99916;-73
2023/08/12 07:20:51;;;;;;;8.30;2.50;;;;;;;45.54;14.13;100679.02;102716;1263;137980;-74
2023/08/12 07:23:18;;;;;;;6.30;2.50;;;;;;;45.34;14.46;100676.84;102758;1260;100199;-75
2023/08/12 07:25:48;;;;;;;6.40;2.40;;;;;;;45.46;14.07;100678.83;102783;1263;138062;-84
2023/08/12 07:28:15;;;;;;;5.90;2.00;;;;;;;45.17;13.75;100677.89;102858;1260;103627;-74
2023/08/12 07:30:43;;;;;;;7.90;2.50;;;;;;;44.74;13.56;100678.95;103409;1261;98479;-83
2023/08/12 07:33:10;;;;;;;5.30;2.00;;;;;;;44.17;14.04;100671.09;102790;1260;137682;-84
2023/08/12 07:35:38;;;;;;;5.40;2.00;;;;;;;43.60;14.16;100671.21;103486;1260;100136;-83
2023/08/12 07:38:05;;;;;;;7.10;2.50;;;;;;;43.16;14.60;100669.98;102808;1263;137914;-73
2023/08/12 07:40:33;;;;;;;7.70;2.30;;;;;;;42.90;14.79;100664.21;102812;1263;104095;-72
2023/08/12 07:43:03;;;;;;;6.20;2.20;;;;;;;42.85;14.56;100661.05;102715;1260;100217;-71
2023/08/12 07:45:33;;;;;;;20.90;2.80;;;;;;;42.65;14.61;100657.91;102856;1263;97786;-69
2023/08/12 07:48:00;;;;;;;11.70;2.40;;;;;;;42.52;14.66;100656.84;104257;1258;100055;-73
2023/08/12 07:50:30;;;;;;;4.70;2.00;;;;;;;42.80;14.39;100657.61;103496;1260;138224;-66
2023/08/12 07:52:57;;;;;;;9.30;2.20;;;;;;;43.24;14.21;100651.36;103097;1259;103154;-70
2023/08/12 07:55:24;;;;;;;6.70;1.90;;;;;;;43.65;14.18;100650.29;102640;1260;138008;-65
2023/08/12 07:57:53;;;;;;;6.90;2.10;;;;;;;43.89;13.87;100647.86;102856;1263;97805;-66
2023/08/12 08:00:21;;;;;;;6.00;1.80;;;;;;;43.97;13.98;100644.77;102732;1262;100935;-66
2023/08/12 08:02:51;;;;;;;6.90;2.10;;;;;;;44.43;13.93;100645.34;104192;1258;138394;-67
2023/08/12 08:05:19;;;;;;;6.60;1.90;;;;;;;45.02;14.01;100647.47;103975;1258;104054;-67
2023/08/12 08:07:49;;;;;;;9.50;2.90;;;;;;;45.49;13.81;100647.87;103671;1259;138007;-66
2023/08/12 08:10:16;;;;;;;9.50;2.70;;;;;;;45.93;13.70;100643.41;102810;1260;98048;-66
2023/08/12 08:12:43;;;;;;;7.70;2.10;;;;;;;46.22;13.37;100644.94;102803;1262;100093;-67
2023/08/12 08:15:11;;;;;;;6.20;2.00;;;;;;;46.46;13.06;100637.45;102729;1262;137934;-67
2023/08/12 08:17:41;;;;;;;4.90;1.70;;;;;;;46.60;12.24;100634.79;103644;1259;103507;-66
2023/08/12 08:20:10;;;;;;;7.30;2.30;;;;;;;46.37;12.54;100630.27;102672;1259;138475;-67
2023/08/12 08:22:37;;;;;;;9.10;1.80;;;;;;;46.24;12.67;100628.56;104145;1260;96003;-67
2023/08/12 08:25:05;;;;;;;6.30;1.90;;;;;;;46.05;12.16;100629.60;103582;1260;99020;-66
2023/08/12 08:27:33;;;;;;;4.60;1.70;;;;;;;45.60;12.21;100626.31;102853;1259;97810;-66
2023/08/12 08:30:01;;;;;;;7.30;1.90;;;;;;;45.28;12.66;100627.13;102930;1259;103461;-65
2023/08/12 08:32:29;;;;;;;8.60;1.80;;;;;;;44.83;12.31;100629.80;102681;1264;137832;-65
2023/08/12 08:34:57;;;;;;;7.70;1.90;;;;;;;44.35;12.56;100623.35;103124;1259;97893;-66
2023/08/12 08:37:25;;;;;;;5.10;1.60;;;;;;;43.99;12.62;100621.86;104128;1263;138861;-66
2023/08/12 08:39:53;;;;;;;5.40;2.10;;;;;;;43.52;13.00;100624.65;103965;1260;298378;-66
2023/08/12 08:42:25;;;;;;;3.90;1.70;;;;;;;43.28;13.43;100624.95;102985;1259;103765;-66
2023/08/12 08:44:59;;;;;;;5.20;1.70;;;;;;;43.14;13.45;100622.14;102707;1262;137796;-66
2023/08/12 08:47:28;;;;;;;4.60;1.70;;;;;;;43.01;13.70;100619.61;102831;1259;98858;-66
2023/08/12 08:49:58;;;;;;;5.70;2.00;;;;;;;43.05;13.85;100620.36;102680;1259;138101;-66
2023/08/12 08:52:26;;;;;;;6.90;2.10;;;;;;;42.94;13.59;100618.61;103017;1263;97875;-66
2023/08/12 08:54:54;;;;;;;4.50;1.80;;;;;;;42.62;13.45;100616.13;103456;1261;102695;-66
2023/08/12 08:57:21;;;;;;;5.90;2.00;;;;;;;42.22;13.41;100616.23;102680;1259;138489;-66
2023/08/12 09:00:12;;;;;;;6.50;1.90;;;;;;;41.72;13.55;100614.91;102898;1263;97933;-67
2023/08/12 09:02:46;;;;;;;7.10;1.80;;;;;;;40.87;14.04;100615.73;102893;1261;137730;-67
2023/08/12 09:05:17;;;;;;;3.80;2.00;;;;;;;40.30;14.25;100616.13;102805;1259;97819;-67
2023/08/12 09:07:46;;;;;;;5.20;1.80;;;;;;;39.70;14.55;100617.48;103024;1260;137840;-66
2023/08/12 09:10:13;;;;;;;4.90;1.70;;;;;;;39.17;14.85;100613.33;104254;1259;98388;-66
2023/08/12 09:12:43;;;;;;;5.40;1.90;;;;;;;38.49;15.24;100607.73;103081;1261;97781;-66
2023/08/12 09:15:11;;;;;;;6.10;2.00;;;;;;;37.90;15.71;100607.08;102957;1259;137749;-67
2023/08/12 09:17:38;;;;;;;7.00;1.90;;;;;;;37.69;16.19;100604.33;104146;1259;96041;-66
2023/08/12 09:20:11;;;;;;;3.30;1.60;;;;;;;37.75;16.52;100600.40;103097;1259;138247;-67
2023/08/12 09:22:39;;;;;;;5.80;1.80;;;;;;;37.93;16.47;100600.29;103225;1258;98951;-66
2023/08/12 09:25:09;;;;;;;6.30;1.90;;;;;;;37.68;16.41;100596.90;102888;1259;97886;-66
2023/08/12 09:27:38;;;;;;;3.70;1.80;;;;;;;37.35;16.18;100597.89;103813;1260;100255;-66
2023/08/12 09:30:08;;;;;;;3.90;1.90;;;;;;;36.99;16.24;100598.17;102909;1259;97727;-66
2023/08/12 09:32:38;;;;;;;5.80;1.70;;;;;;;36.72;16.60;100598.98;103087;1259;137632;-66
2023/08/12 09:35:16;;;;;;;4.00;2.20;;;;;;;36.67;16.96;100593.30;102840;1259;100042;-66
2023/08/12 09:37:44;;;;;;;6.00;1.70;;;;;;;36.73;17.06;100589.15;103737;1258;138125;-66
2023/08/12 09:40:12;;;;;;;10.10;1.60;;;;;;;36.85;16.74;100590.95;102934;1259;100229;-66
2023/08/12 09:42:47;;;;;;;3.30;1.60;;;;;;;36.95;16.65;100588.46;102892;1259;97745;-68
2023/08/12 09:45:15;;;;;;;4.20;1.60;;;;;;;37.06;16.73;100586.93;103792;1258;138344;-65
2023/08/12 09:47:44;;;;;;;8.40;2.10;;;;;;;37.16;16.80;100586.77;103220;1260;100079;-68
2023/08/12 09:50:13;;;;;;;4.90;2.00;;;;;;;37.22;16.76;100591.10;103352;1258;138194;-67
2023/08/12 09:52:40;;;;;;;4.30;1.90;;;;;;;37.23;17.01;100585.75;102934;1259;100416;-68
2023/08/12 09:55:12;;;;;;;10.80;2.10;;;;;;;37.23;17.12;100582.32;102874;1259;97810;-66
2023/08/12 09:57:43;;;;;;;7.40;2.10;;;;;;;37.11;17.12;100581.73;102920;1259;103333;-66
2023/08/12 10:00:16;;;;;;;6.70;1.90;;;;;;;36.89;17.07;100573.05;102865;1259;99984;-66
2023/08/12 10:02:44;;;;;;;4.60;2.30;;;;;;;36.67;17.22;100566.17;104227;1262;138267;-67
2023/08/12 10:05:12;;;;;;;12.00;2.90;;;;;;;36.73;17.84;100566.71;102987;1263;100025;-66
2023/08/12 10:07:40;;;;;;;6.40;2.50;;;;;;;37.05;18.10;100565.34;103037;1258;138165;-67
2023/08/12 10:10:09;;;;;;;8.90;3.00;;;;;;;37.33;18.10;100563.09;104248;1259;102713;-66
2023/08/12 10:12:37;;;;;;;4.90;2.30;;;;;;;37.56;17.87;100563.47;102936;1258;98961;-66
2023/08/12 10:15:06;;;;;;;6.70;1.90;;;;;;;37.72;17.81;100564.18;102769;1259;137803;-69
2023/08/12 10:17:34;;;;;;;5.80;2.00;;;;;;;37.90;17.61;100562.77;104280;1263;109068;-65
2023/08/12 10:20:13;;;;;;;6.60;1.90;;;;;;;37.93;17.43;100561.25;103486;1260;137913;-65
2023/08/12 10:22:43;;;;;;;5.40;1.80;;;;;;;37.80;17.46;100560.33;103217;1259;102098;-65
2023/08/12 10:25:14;;;;;;;6.30;2.00;;;;;;;37.74;17.48;100560.13;103862;1259;99092;-64
2023/08/12 10:27:42;;;;;;;6.20;2.20;;;;;;;37.81;17.78;100556.80;103526;1259;97765;-65
2023/08/12 10:30:11;;;;;;;6.30;2.30;;;;;;;37.84;18.02;100555.66;102889;1257;100855;-65
2023/08/12 10:32:40;;;;;;;4.70;2.00;;;;;;;37.55;17.49;100554.10;103951;1258;137849;-65
2023/08/12 10:35:09;;;;;;;6.20;2.00;;;;;;;37.20;17.28;100553.91;103217;1259;102638;-63
2023/08/12 10:37:37;;;;;;;5.20;2.00;;;;;;;36.98;17.85;100549.65;103369;1259;138922;-64
2023/08/12 10:40:21;;;;;;;5.10;2.50;;;;;;;36.84;17.83;100547.55;102844;1258;97862;-66
2023/08/12 10:42:50;;;;;;;8.70;1.80;;;;;;;36.46;17.76;100548.06;103066;1259;99088;-63
2023/08/12 10:45:18;;;;;;;5.60;1.80;;;;;;;36.29;18.11;100546.85;102786;1259;137742;-64
2023/08/12 10:48:09;;;;;;;4.10;2.00;;;;;;;36.13;18.05;100544.22;102907;1262;104070;-64
2023/08/12 10:50:37;;;;;;;6.90;2.20;;;;;;;35.46;18.19;100541.31;102865;1259;137995;-64
2023/08/12 10:53:24;;;;;;;5.60;2.40;;;;;;;35.02;18.62;100533.48;102858;1263;97782;-65
2023/08/12 10:55:55;;;;;;;5.40;2.00;;;;;;;34.62;18.92;100528.14;103216;1263;138150;-65
2023/08/12 10:58:30;;;;;;;3.00;1.80;;;;;;;34.49;19.57;100527.11;104299;1259;97313;-64
2023/08/12 11:00:58;;;;;;;4.90;2.20;;;;;;;34.47;19.99;100527.62;104273;1259;103599;-63
2023/08/12 11:03:26;;;;;;;5.20;2.00;;;;;;;34.50;20.20;100528.15;102821;1259;138866;-65
2023/08/12 11:05:55;;;;;;;4.60;1.90;;;;;;;34.53;20.23;100528.63;102921;1259;97846;-65
2023/08/12 11:08:27;;;;;;;6.70;2.00;;;;;;;34.58;20.21;100522.56;104132;1258;137692;-64
2023/08/12 11:10:58;;;;;;;7.90;1.90;;;;;;;34.59;20.19;100520.45;104300;1259;96035;-64
2023/08/12 11:13:27;;;;;;;3.90;2.20;;;;;;;34.50;20.22;100517.17;102949;1258;137838;-64